sensor_id;sensor_type;location;lat;lon;timestamp;pressure;altitude;pressure_sealevel;temperature;humidity
15971;BME280;59785;52.582;13.892;2022-08-21T00:16:46;100759.63;;;18.26;100.00
15971;BME280;59785;52.582;13.892;2022-08-21T00:19:12;100749.19;;;18.23;100.00
15971;BME280;59785;52.582;13.892;2022-08-21T00:21:39;100750.03;;;18.23;100.00
15971;BME280;59785;52.582;13.892;2022-08-21T00:24:09;100755.66;;;18.22;100.00
15971;BME280;59785;52.582;13.892;2022-08-21T00:26:35;100750.63;;;18.19;100.00
15971;BME280;59785;52.582;13.892;2022-08-21T00:29:02;100744.19;;;18.20;100.00
15971;BME280;59785;52.582;13.892;2022-08-21T00:31:28;100736.44;;;18.17;100.00
15971;BME280;59785;52.582;13.892;2022-08-21T00:33:54;100741.03;;;18.16;100.00
15971;BME280;59785;52.582;13.892;2022-08-21T00:36:26;100743.94;;;18.15;100.00
15971;BME280;59785;52.582;13.892;2022-08-21T00:38:52;100744.38;;;18.11;100.00
15971;BME280;59785;52.582;13.892;2022-08-21T00:41:18;100743.72;;;18.09;100.00
15971;BME280;59785;52.582;13.892;2022-08-21T00:44:08;100753.09;;;18.07;100.00
15971;BME280;59785;52.582;13.892;2022-08-21T00:46:36;100747.03;;;18.05;100.00
15971;BME280;59785;52.582;13.892;2022-08-21T00:49:04;100750.59;;;18.05;100.00
15971;BME280;59785;52.582;13.892;2022-08-21T00:51:52;100752.28;;;18.06;100.00
15971;BME280;59785;52.582;13.892;2022-08-21T00:54:22;100755.34;;;17.97;100.00
15971;BME280;59785;52.582;13.892;2022-08-21T00:56:55;100759.53;;;17.99;100.00
15971;BME280;59785;52.582;13.892;2022-08-21T00:59:27;100754.72;;;17.95;100.00
15971;BME280;59785;52.582;13.892;2022-08-21T01:01:56;100758.88;;;17.90;100.00
15971;BME280;59785;52.582;13.892;2022-08-21T01:04:22;100757.44;;;17.95;100.00
15971;BME280;59785;52.582;13.892;2022-08-21T01:06:49;100764.09;;;17.92;100.00
15971;BME280;59785;52.582;13.892;2022-08-21T01:09:15;100759.72;;;17.91;100.00
15971;BME280;59785;52.582;13.892;2022-08-21T01:11:42;100755.13;;;17.91;100.00
15971;BME280;59785;52.582;13.892;2022-08-21T01:14:09;100764.69;;;17.87;100.00
15971;BME280;59785;52.582;13.892;2022-08-21T01:16:39;100760.53;;;17.85;100.00
15971;BME280;59785;52.582;13.892;2022-08-21T01:19:07;100764.06;;;17.85;100.00
15971;BME280;59785;52.582;13.892;2022-08-21T01:21:34;100772.19;;;17.85;100.00
15971;BME280;59785;52.582;13.892;2022-08-21T01:24:00;100780.91;;;17.81;100.00
15971;BME280;59785;52.582;13.892;2022-08-21T01:26:30;100764.06;;;17.85;100.00
15971;BME280;59785;52.582;13.892;2022-08-21T01:29:23;100767.81;;;17.84;100.00
15971;BME280;59785;52.582;13.892;2022-08-21T01:31:52;100774.44;;;17.82;100.00
15971;BME280;59785;52.582;13.892;2022-08-21T01:34:18;100772.78;;;17.81;100.00
15971;BME280;59785;52.582;13.892;2022-08-21T01:36:46;100779.41;;;17.78;100.00
15971;BME280;59785;52.582;13.892;2022-08-21T01:39:13;100771.72;;;17.82;100.00
15971;BME280;59785;52.582;13.892;2022-08-21T01:41:40;100775.09;;;17.84;100.00
15971;BME280;59785;52.582;13.892;2022-08-21T01:44:06;100772.53;;;17.82;100.00
15971;BME280;59785;52.582;13.892;2022-08-21T01:46:33;100769.00;;;17.82;100.00
15971;BME280;59785;52.582;13.892;2022-08-21T01:48:59;100770.25;;;17.79;100.00
15971;BME280;59785;52.582;13.892;2022-08-21T01:51:26;100760.66;;;17.77;100.00
15971;BME280;59785;52.582;13.892;2022-08-21T01:53:52;100758.72;;;17.70;100.00
15971;BME280;59785;52.582;13.892;2022-08-21T01:56:19;100764.56;;;17.67;100.00
15971;BME280;59785;52.582;13.892;2022-08-21T01:58:46;100763.75;;;17.67;100.00
15971;BME280;59785;52.582;13.892;2022-08-21T02:01:13;100773.53;;;17.68;100.00
15971;BME280;59785;52.582;13.892;2022-08-21T02:03:39;100768.75;;;17.70;100.00
15971;BME280;59785;52.582;13.892;2022-08-21T02:06:10;100766.22;;;17.68;100.00
15971;BME280;59785;52.582;13.892;2022-08-21T02:08:37;100769.78;;;17.69;100.00
15971;BME280;59785;52.582;13.892;2022-08-21T02:11:04;100767.91;;;17.69;100.00
15971;BME280;59785;52.582;13.892;2022-08-21T02:13:30;100763.09;;;17.65;100.00
15971;BME280;59785;52.582;13.892;2022-08-21T02:15:56;100764.56;;;17.67;100.00
15971;BME280;59785;52.582;13.892;2022-08-21T02:18:23;100766.22;;;17.68;100.00
15971;BME280;59785;52.582;13.892;2022-08-21T02:20:50;100759.97;;;17.68;100.00
15971;BME280;59785;52.582;13.892;2022-08-21T02:23:21;100768.09;;;17.61;100.00
15971;BME280;59785;52.582;13.892;2022-08-21T02:25:52;100758.06;;;17.62;100.00
15971;BME280;59785;52.582;13.892;2022-08-21T02:28:18;100754.72;;;17.60;100.00
15971;BME280;59785;52.582;13.892;2022-08-21T02:30:47;100744.88;;;17.52;100.00
15971;BME280;59785;52.582;13.892;2022-08-21T02:33:13;100746.13;;;17.49;100.00
15971;BME280;59785;52.582;13.892;2022-08-21T02:35:41;100747.34;;;17.47;100.00
15971;BME280;59785;52.582;13.892;2022-08-21T02:38:12;100749.84;;;17.42;100.00
15971;BME280;59785;52.582;13.892;2022-08-21T02:40:41;100753.38;;;17.42;100.00
15971;BME280;59785;52.582;13.892;2022-08-21T02:43:13;100749.03;;;17.48;100.00
15971;BME280;59785;52.582;13.892;2022-08-21T02:45:42;100753.19;;;17.44;100.00
15971;BME280;59785;52.582;13.892;2022-08-21T02:48:11;100750.47;;;17.44;100.00
15971;BME280;59785;52.582;13.892;2022-08-21T02:50:40;100755.81;;;17.37;100.00
15971;BME280;59785;52.582;13.892;2022-08-21T02:53:10;100748.34;;;17.39;100.00
15971;BME280;59785;52.582;13.892;2022-08-21T02:55:37;100753.34;;;17.36;100.00
15971;BME280;59785;52.582;13.892;2022-08-21T02:58:06;100745.16;;;17.29;100.00
15971;BME280;59785;52.582;13.892;2022-08-21T03:00:34;100755.97;;;17.29;100.00
15971;BME280;59785;52.582;13.892;2022-08-21T03:03:01;100755.94;;;17.22;100.00
15971;BME280;59785;52.582;13.892;2022-08-21T03:05:28;100761.94;;;17.18;100.00
15971;BME280;59785;52.582;13.892;2022-08-21T03:07:58;100758.41;;;17.17;100.00
15971;BME280;59785;52.582;13.892;2022-08-21T03:10:25;100754.59;;;17.11;100.00
15971;BME280;59785;52.582;13.892;2022-08-21T03:12:51;100753.13;;;17.09;100.00
15971;BME280;59785;52.582;13.892;2022-08-21T03:15:20;100757.50;;;17.10;100.00
15971;BME280;59785;52.582;13.892;2022-08-21T03:17:47;100759.53;;;17.01;100.00
15971;BME280;59785;52.582;13.892;2022-08-21T03:20:16;100755.34;;;16.99;100.00
15971;BME280;59785;52.582;13.892;2022-08-21T03:22:43;100754.91;;;16.95;100.00
15971;BME280;59785;52.582;13.892;2022-08-21T03:25:18;100764.00;;;16.87;100.00
15971;BME280;59785;52.582;13.892;2022-08-21T03:27:48;100760.19;;;16.82;100.00
15971;BME280;59785;52.582;13.892;2022-08-21T03:30:20;100752.91;;;16.82;100.00
15971;BME280;59785;52.582;13.892;2022-08-21T03:32:48;100754.31;;;16.78;100.00
15971;BME280;59785;52.582;13.892;2022-08-21T03:35:14;100767.56;;;16.73;100.00
15971;BME280;59785;52.582;13.892;2022-08-21T03:37:41;100763.56;;;16.69;100.00
15971;BME280;59785;52.582;13.892;2022-08-21T03:40:08;100763.19;;;16.72;100.00
15971;BME280;59785;52.582;13.892;2022-08-21T03:42:35;100763.38;;;16.70;100.00
15971;BME280;59785;52.582;13.892;2022-08-21T03:45:03;100766.59;;;16.59;100.00
15971;BME280;59785;52.582;13.892;2022-08-21T03:47:30;100765.78;;;16.59;100.00
15971;BME280;59785;52.582;13.892;2022-08-21T03:49:56;100769.31;;;16.59;100.00
15971;BME280;59785;52.582;13.892;2022-08-21T03:52:22;100761.78;;;16.54;100.00
15971;BME280;59785;52.582;13.892;2022-08-21T03:54:49;100763.66;;;16.54;100.00
15971;BME280;59785;52.582;13.892;2022-08-21T03:57:17;100770.72;;;16.55;100.00
15971;BME280;59785;52.582;13.892;2022-08-21T03:59:43;100768.59;;;16.50;100.00
15971;BME280;59785;52.582;13.892;2022-08-21T04:02:10;100768.97;;;16.47;100.00
15971;BME280;59785;52.582;13.892;2022-08-21T04:04:36;100765.03;;;16.50;100.00
15971;BME280;59785;52.582;13.892;2022-08-21T04:07:03;100768.97;;;16.47;100.00
15971;BME280;59785;52.582;13.892;2022-08-21T04:09:29;100764.41;;;16.48;100.00
15971;BME280;59785;52.582;13.892;2022-08-21T04:11:56;100766.28;;;16.47;100.00
15971;BME280;59785;52.582;13.892;2022-08-21T04:14:24;100770.03;;;16.46;100.00
15971;BME280;59785;52.582;13.892;2022-08-21T04:16:50;100772.50;;;16.48;100.00
15971;BME280;59785;52.582;13.892;2022-08-21T04:19:16;100771.03;;;16.45;100.00
15971;BME280;59785;52.582;13.892;2022-08-21T04:21:43;100771.44;;;16.42;100.00
15971;BME280;59785;52.582;13.892;2022-08-21T04:24:09;100777.50;;;16.44;100.00
15971;BME280;59785;52.582;13.892;2022-08-21T04:26:37;100777.50;;;16.44;100.00
15971;BME280;59785;52.582;13.892;2022-08-21T04:29:05;100782.50;;;16.47;100.00
15971;BME280;59785;52.582;13.892;2022-08-21T04:31:35;100776.06;;;16.48;100.00
15971;BME280;59785;52.582;13.892;2022-08-21T04:34:05;100776.91;;;16.49;100.00
15971;BME280;59785;52.582;13.892;2022-08-21T04:36:33;100766.47;;;16.46;100.00
15971;BME280;59785;52.582;13.892;2022-08-21T04:38:59;100771.69;;;16.47;100.00
15971;BME280;59785;52.582;13.892;2022-08-21T04:41:28;100777.72;;;16.49;100.00
15971;BME280;59785;52.582;13.892;2022-08-21T04:43:55;100775.31;;;16.54;100.00
15971;BME280;59785;52.582;13.892;2022-08-21T04:46:22;100769.88;;;16.54;100.00
15971;BME280;59785;52.582;13.892;2022-08-21T04:48:49;100771.50;;;16.49;100.00
15971;BME280;59785;52.582;13.892;2022-08-21T04:51:22;100770.91;;;16.53;100.00
15971;BME280;59785;52.582;13.892;2022-08-21T04:56:43;100778.66;;;16.56;100.00
15971;BME280;59785;52.582;13.892;2022-08-21T04:59:24;100776.13;;;16.55;100.00
15971;BME280;59785;52.582;13.892;2022-08-21T05:01:52;100779.47;;;16.57;100.00
15971;BME280;59785;52.582;13.892;2022-08-21T05:04:23;100782.63;;;16.61;100.00
15971;BME280;59785;52.582;13.892;2022-08-21T05:06:52;100779.94;;;16.61;100.00
15971;BME280;59785;52.582;13.892;2022-08-21T05:09:20;100776.22;;;16.62;100.00
15971;BME280;59785;52.582;13.892;2022-08-21T05:11:47;100773.94;;;16.65;100.00
15971;BME280;59785;52.582;13.892;2022-08-21T05:14:14;100773.75;;;16.67;99.42
15971;BME280;59785;52.582;13.892;2022-08-21T05:16:41;100777.75;;;16.71;99.49
15971;BME280;59785;52.582;13.892;2022-08-21T05:19:10;100775.44;;;16.68;99.33
15971;BME280;59785;52.582;13.892;2022-08-21T05:21:40;100789.78;;;16.68;98.68
15971;BME280;59785;52.582;13.892;2022-08-21T05:24:07;100785.03;;;16.70;98.09
15971;BME280;59785;52.582;13.892;2022-08-21T05:26:34;100789.78;;;16.68;98.34
15971;BME280;59785;52.582;13.892;2022-08-21T05:29:12;100789.84;;;16.75;97.98
15971;BME280;59785;52.582;13.892;2022-08-21T05:31:38;100794.50;;;16.81;96.89
15971;BME280;59785;52.582;13.892;2022-08-21T05:34:04;100798.25;;;16.80;97.44
15971;BME280;59785;52.582;13.892;2022-08-21T05:36:31;100792.47;;;16.83;96.44
15971;BME280;59785;52.582;13.892;2022-08-21T05:38:57;100795.06;;;16.91;96.47
15971;BME280;59785;52.582;13.892;2022-08-21T05:41:23;100789.44;;;16.93;96.77
15971;BME280;59785;52.582;13.892;2022-08-21T05:43:49;100790.28;;;16.93;95.97
15971;BME280;59785;52.582;13.892;2022-08-21T05:46:15;100789.88;;;16.97;95.81
15971;BME280;59785;52.582;13.892;2022-08-21T05:48:42;100779.44;;;16.93;95.58
15971;BME280;59785;52.582;13.892;2022-08-21T05:51:11;100775.59;;;17.03;95.36
15971;BME280;59785;52.582;13.892;2022-08-21T05:53:38;100780.78;;;17.04;95.09
15971;BME280;59785;52.582;13.892;2022-08-21T05:56:05;100792.84;;;17.02;94.57
15971;BME280;59785;52.582;13.892;2022-08-21T05:58:33;100793.75;;;17.09;94.61
15971;BME280;59785;52.582;13.892;2022-08-21T06:01:00;100795.41;;;17.10;94.28
15971;BME280;59785;52.582;13.892;2022-08-21T06:03:30;100798.38;;;17.15;93.72
15971;BME280;59785;52.582;13.892;2022-08-21T06:05:58;100804.28;;;17.25;92.92
15971;BME280;59785;52.582;13.892;2022-08-21T06:08:25;100799.06;;;17.24;92.75
15971;BME280;59785;52.582;13.892;2022-08-21T06:10:52;100799.66;;;17.19;92.65
15971;BME280;59785;52.582;13.892;2022-08-21T06:13:20;100807.59;;;17.21;92.14
15971;BME280;59785;52.582;13.892;2022-08-21T06:15:47;100808.06;;;17.31;92.47
15971;BME280;59785;52.582;13.892;2022-08-21T06:18:13;100805.63;;;17.36;91.62
15971;BME280;59785;52.582;13.892;2022-08-21T06:20:40;100801.41;;;17.33;90.57
15971;BME280;59785;52.582;13.892;2022-08-21T06:23:06;100809.81;;;17.39;91.00
15971;BME280;59785;52.582;13.892;2022-08-21T06:25:33;100811.16;;;17.49;89.96
15971;BME280;59785;52.582;13.892;2022-08-21T06:28:08;100810.16;;;17.57;89.00
15971;BME280;59785;52.582;13.892;2022-08-21T06:30:35;100814.53;;;17.58;88.08
15971;BME280;59785;52.582;13.892;2022-08-21T06:33:01;100808.09;;;17.59;88.27
15971;BME280;59785;52.582;13.892;2022-08-21T06:35:28;100804.31;;;17.60;88.39
15971;BME280;59785;52.582;13.892;2022-08-21T06:37:56;100816.06;;;17.67;87.74
15971;BME280;59785;52.582;13.892;2022-08-21T06:40:23;100809.84;;;17.73;87.52
15971;BME280;59785;52.582;13.892;2022-08-21T06:42:49;100805.53;;;17.86;86.45
15971;BME280;59785;52.582;13.892;2022-08-21T06:45:16;100809.53;;;17.90;86.56
15971;BME280;59785;52.582;13.892;2022-08-21T06:47:42;100812.31;;;18.03;85.71
15971;BME280;59785;52.582;13.892;2022-08-21T06:50:09;100802.28;;;17.97;84.95
15971;BME280;59785;52.582;13.892;2022-08-21T06:52:36;100808.13;;;17.94;84.38
15971;BME280;59785;52.582;13.892;2022-08-21T06:55:05;100810.66;;;18.02;85.46
15971;BME280;59785;52.582;13.892;2022-08-21T06:57:32;100805.06;;;18.17;85.02
15971;BME280;59785;52.582;13.892;2022-08-21T06:59:58;100812.00;;;18.26;83.87
15971;BME280;59785;52.582;13.892;2022-08-21T07:02:24;100816.22;;;18.42;83.71
15971;BME280;59785;52.582;13.892;2022-08-21T07:04:50;100817.91;;;18.43;82.51
15971;BME280;59785;52.582;13.892;2022-08-21T07:07:17;100819.63;;;18.58;82.23
15971;BME280;59785;52.582;13.892;2022-08-21T07:09:43;100817.41;;;18.81;81.53
15971;BME280;59785;52.582;13.892;2022-08-21T07:12:09;100816.31;;;18.76;80.84
15971;BME280;59785;52.582;13.892;2022-08-21T07:14:36;100809.25;;;18.81;80.87
15971;BME280;59785;52.582;13.892;2022-08-21T07:17:02;100813.81;;;18.74;80.40
15971;BME280;59785;52.582;13.892;2022-08-21T07:19:28;100816.72;;;18.79;80.50
15971;BME280;59785;52.582;13.892;2022-08-21T07:21:58;100812.19;;;18.86;79.46
15971;BME280;59785;52.582;13.892;2022-08-21T07:24:26;100807.00;;;18.91;79.62
15971;BME280;59785;52.582;13.892;2022-08-21T07:26:52;100807.84;;;19.05;78.33
15971;BME280;59785;52.582;13.892;2022-08-21T07:29:18;100815.53;;;19.08;78.49
15971;BME280;59785;52.582;13.892;2022-08-21T07:31:44;100805.53;;;19.09;78.83
15971;BME280;59785;52.582;13.892;2022-08-21T07:34:10;100801.97;;;19.28;78.71
15971;BME280;59785;52.582;13.892;2022-08-21T07:36:37;100801.31;;;19.40;76.80
15971;BME280;59785;52.582;13.892;2022-08-21T07:39:04;100801.53;;;19.45;77.55
15971;BME280;59785;52.582;13.892;2022-08-21T07:41:30;100802.81;;;19.42;76.92
15971;BME280;59785;52.582;13.892;2022-08-21T07:43:58;100799.88;;;19.50;76.78
15971;BME280;59785;52.582;13.892;2022-08-21T07:46:25;100797.53;;;19.67;76.61
15971;BME280;59785;52.582;13.892;2022-08-21T07:48:52;100794.19;;;19.79;75.89
15971;BME280;59785;52.582;13.892;2022-08-21T07:51:21;100807.16;;;19.83;75.18
15971;BME280;59785;52.582;13.892;2022-08-21T07:53:50;100799.00;;;19.57;75.28
15971;BME280;59785;52.582;13.892;2022-08-21T07:56:17;100810.09;;;19.62;76.23
15971;BME280;59785;52.582;13.892;2022-08-21T07:58:43;100819.13;;;19.42;75.89
15971;BME280;59785;52.582;13.892;2022-08-21T08:01:10;100808.63;;;19.53;75.44
15971;BME280;59785;52.582;13.892;2022-08-21T08:03:36;100809.66;;;19.78;76.03
15971;BME280;59785;52.582;13.892;2022-08-21T08:06:02;100807.06;;;20.03;74.88
15971;BME280;59785;52.582;13.892;2022-08-21T08:08:31;100806.41;;;20.15;73.69
15971;BME280;59785;52.582;13.892;2022-08-21T08:10:58;100801.41;;;20.12;72.36
15971;BME280;59785;52.582;13.892;2022-08-21T08:13:25;100804.88;;;20.32;72.76
15971;BME280;59785;52.582;13.892;2022-08-21T08:15:51;100810.50;;;20.37;71.97
15971;BME280;59785;52.582;13.892;2022-08-21T08:18:17;100805.13;;;20.24;72.47
15971;BME280;59785;52.582;13.892;2022-08-21T08:20:44;100807.41;;;20.27;71.63
15971;BME280;59785;52.582;13.892;2022-08-21T08:23:11;100807.38;;;20.34;71.87
15971;BME280;59785;52.582;13.892;2022-08-21T08:25:37;100816.53;;;20.46;70.86
15971;BME280;59785;52.582;13.892;2022-08-21T08:28:04;100809.75;;;20.62;70.69
15971;BME280;59785;52.582;13.892;2022-08-21T08:30:42;100805.72;;;20.71;69.86
15971;BME280;59785;52.582;13.892;2022-08-21T08:33:08;100800.34;;;20.64;70.00
15971;BME280;59785;52.582;13.892;2022-08-21T08:35:35;100793.66;;;20.92;69.98
15971;BME280;59785;52.582;13.892;2022-08-21T08:38:04;100791.47;;;21.01;67.71
15971;BME280;59785;52.582;13.892;2022-08-21T08:40:38;100806.97;;;20.75;67.47
15971;BME280;59785;52.582;13.892;2022-08-21T08:43:08;100799.94;;;20.61;68.54
15971;BME280;59785;52.582;13.892;2022-08-21T08:45:42;100793.63;;;20.67;69.14
15971;BME280;59785;52.582;13.892;2022-08-21T08:48:13;100808.28;;;20.66;68.62
15971;BME280;59785;52.582;13.892;2022-08-21T08:50:47;100796.38;;;20.60;68.49
15971;BME280;59785;52.582;13.892;2022-08-21T08:53:17;100793.44;;;20.62;69.46
15971;BME280;59785;52.582;13.892;2022-08-21T08:55:47;100798.59;;;20.70;68.69
15971;BME280;59785;52.582;13.892;2022-08-21T08:58:30;100799.41;;;20.77;68.18
15971;BME280;59785;52.582;13.892;2022-08-21T09:00:57;100797.63;;;20.90;66.09
15971;BME280;59785;52.582;13.892;2022-08-21T09:03:25;100801.94;;;20.72;67.84
15971;BME280;59785;52.582;13.892;2022-08-21T09:08:59;100790.88;;;21.24;65.46
15971;BME280;59785;52.582;13.892;2022-08-21T09:11:41;100802.34;;;21.58;63.49
15971;BME280;59785;52.582;13.892;2022-08-21T09:14:18;100795.38;;;21.62;61.76
15971;BME280;59785;52.582;13.892;2022-08-21T09:19:32;100794.91;;;21.65;62.38
15971;BME280;59785;52.582;13.892;2022-08-21T09:22:09;100794.38;;;21.56;62.55
15971;BME280;59785;52.582;13.892;2022-08-21T09:24:49;100796.97;;;21.70;61.87
15971;BME280;59785;52.582;13.892;2022-08-21T09:27:19;100798.19;;;21.74;60.76
15971;BME280;59785;52.582;13.892;2022-08-21T09:29:50;100794.41;;;21.93;61.19
15971;BME280;59785;52.582;13.892;2022-08-21T09:32:22;100788.63;;;22.01;60.15
15971;BME280;59785;52.582;13.892;2022-08-21T09:35:11;100785.47;;;21.86;61.21
15971;BME280;59785;52.582;13.892;2022-08-21T09:38:01;100790.69;;;21.88;61.45
15971;BME280;59785;52.582;13.892;2022-08-21T09:43:18;100791.38;;;22.01;59.80
15971;BME280;59785;52.582;13.892;2022-08-21T09:45:46;100797.59;;;22.09;60.55
15971;BME280;59785;52.582;13.892;2022-08-21T09:48:17;100801.59;;;22.24;59.53
15971;BME280;59785;52.582;13.892;2022-08-21T09:50:44;100792.84;;;22.16;60.36
15971;BME280;59785;52.582;13.892;2022-08-21T09:53:21;100792.00;;;22.52;59.75
15971;BME280;59785;52.582;13.892;2022-08-21T09:55:57;100793.75;;;22.47;58.84
15971;BME280;59785;52.582;13.892;2022-08-21T09:58:49;100794.69;;;22.71;58.56
15971;BME280;59785;52.582;13.892;2022-08-21T10:01:17;100790.03;;;22.71;56.85
15971;BME280;59785;52.582;13.892;2022-08-21T10:03:48;100792.72;;;22.29;59.15
15971;BME280;59785;52.582;13.892;2022-08-21T10:06:25;100800.22;;;22.64;58.99
15971;BME280;59785;52.582;13.892;2022-08-21T10:09:05;100801.06;;;22.76;57.19
15971;BME280;59785;52.582;13.892;2022-08-21T10:11:33;100792.06;;;22.76;57.90
15971;BME280;59785;52.582;13.892;2022-08-21T10:14:09;100796.88;;;22.62;58.05
15971;BME280;59785;52.582;13.892;2022-08-21T10:16:57;100783.25;;;23.04;57.18
15971;BME280;59785;52.582;13.892;2022-08-21T10:19:34;100791.69;;;23.26;56.55
15971;BME280;59785;52.582;13.892;2022-08-21T10:22:29;100790.97;;;23.19;56.32
15971;BME280;59785;52.582;13.892;2022-08-21T10:25:12;100786.41;;;23.01;55.64
15971;BME280;59785;52.582;13.892;2022-08-21T10:27:55;100784.91;;;23.05;55.87
15971;BME280;59785;52.582;13.892;2022-08-21T10:33:24;100785.81;;;22.99;54.51
15971;BME280;59785;52.582;13.892;2022-08-21T10:36:02;100794.19;;;23.16;55.62
15971;BME280;59785;52.582;13.892;2022-08-21T10:38:55;100791.84;;;23.19;54.54
15971;BME280;59785;52.582;13.892;2022-08-21T10:41:58;100785.28;;;23.32;53.92
15971;BME280;59785;52.582;13.892;2022-08-21T10:47:15;100786.13;;;23.56;53.25
15971;BME280;59785;52.582;13.892;2022-08-21T10:50:04;100790.66;;;23.39;53.72
15971;BME280;59785;52.582;13.892;2022-08-21T10:55:21;100787.16;;;23.67;53.44
15971;BME280;59785;52.582;13.892;2022-08-21T10:58:02;100782.88;;;23.83;52.40
15971;BME280;59785;52.582;13.892;2022-08-21T11:00:43;100786.19;;;23.97;52.27
15971;BME280;59785;52.582;13.892;2022-08-21T11:03:25;100788.97;;;23.61;52.70
15971;BME280;59785;52.582;13.892;2022-08-21T11:05:58;100792.88;;;23.54;53.67
15971;BME280;59785;52.582;13.892;2022-08-21T11:08:32;100798.94;;;23.79;53.97
15971;BME280;59785;52.582;13.892;2022-08-21T11:11:04;100800.75;;;23.86;51.95
15971;BME280;59785;52.582;13.892;2022-08-21T11:13:45;100801.78;;;23.73;52.01
15971;BME280;59785;52.582;13.892;2022-08-21T11:16:29;100803.56;;;23.91;51.91
15971;BME280;59785;52.582;13.892;2022-08-21T11:21:54;100803.56;;;23.91;52.52
15971;BME280;59785;52.582;13.892;2022-08-21T11:27:18;100805.50;;;23.90;51.49
15971;BME280;59785;52.582;13.892;2022-08-21T11:29:52;100796.66;;;24.00;50.48
15971;BME280;59785;52.582;13.892;2022-08-21T11:35:13;100798.94;;;23.79;51.51
15971;BME280;59785;52.582;13.892;2022-08-21T11:37:55;100799.84;;;24.09;50.50
15971;BME280;59785;52.582;13.892;2022-08-21T11:43:27;100793.28;;;24.21;49.92
15971;BME280;59785;52.582;13.892;2022-08-21T11:46:20;100791.97;;;24.53;49.01
15971;BME280;59785;52.582;13.892;2022-08-21T11:52:08;100790.22;;;24.75;47.78
15971;BME280;59785;52.582;13.892;2022-08-21T11:57:34;100784.06;;;24.85;47.31
15971;BME280;59785;52.582;13.892;2022-08-21T12:00:11;100786.41;;;25.27;46.46
15971;BME280;59785;52.582;13.892;2022-08-21T12:02:51;100783.00;;;25.37;44.94
15971;BME280;59785;52.582;13.892;2022-08-21T12:05:31;100782.38;;;25.30;45.57
15971;BME280;59785;52.582;13.892;2022-08-21T12:08:02;100779.41;;;25.19;44.96
15971;BME280;59785;52.582;13.892;2022-08-21T12:13:28;100777.66;;;25.13;46.26
15971;BME280;59785;52.582;13.892;2022-08-21T12:18:35;100775.00;;;24.85;45.59
15971;BME280;59785;52.582;13.892;2022-08-21T12:21:20;100781.78;;;24.65;46.77
15971;BME280;59785;52.582;13.892;2022-08-21T12:23:59;100768.38;;;25.14;45.42
15971;BME280;59785;52.582;13.892;2022-08-21T12:26:33;100767.63;;;25.36;44.72
15971;BME280;59785;52.582;13.892;2022-08-21T12:29:04;100758.53;;;25.52;44.06
15971;BME280;59785;52.582;13.892;2022-08-21T12:31:31;100751.41;;;25.73;42.92
15971;BME280;59785;52.582;13.892;2022-08-21T12:34:01;100757.34;;;25.87;43.22
15971;BME280;59785;52.582;13.892;2022-08-21T12:36:57;100753.25;;;25.68;43.11
15971;BME280;59785;52.582;13.892;2022-08-21T12:39:27;100763.72;;;24.98;45.06
15971;BME280;59785;52.582;13.892;2022-08-21T12:42:05;100764.38;;;24.88;45.48
15971;BME280;59785;52.582;13.892;2022-08-21T12:44:55;100756.16;;;24.71;44.47
15971;BME280;59785;52.582;13.892;2022-08-21T12:47:25;100760.06;;;24.92;44.62
15971;BME280;59785;52.582;13.892;2022-08-21T12:49:59;100760.91;;;24.93;44.80
15971;BME280;59785;52.582;13.892;2022-08-21T12:52:35;100758.47;;;25.13;43.87
15971;BME280;59785;52.582;13.892;2022-08-21T12:55:05;100753.72;;;25.43;43.27
15971;BME280;59785;52.582;13.892;2022-08-21T12:57:31;100750.47;;;25.63;42.82
15971;BME280;59785;52.582;13.892;2022-08-21T13:00:03;100746.00;;;25.78;43.03
15971;BME280;59785;52.582;13.892;2022-08-21T13:02:36;100749.16;;;25.70;44.09
15971;BME280;59785;52.582;13.892;2022-08-21T13:05:07;100748.72;;;25.56;44.63
15971;BME280;59785;52.582;13.892;2022-08-21T13:07:44;100754.31;;;25.45;43.79
15971;BME280;59785;52.582;13.892;2022-08-21T13:10:47;100753.09;;;25.35;43.46
15971;BME280;59785;52.582;13.892;2022-08-21T13:13:19;100756.41;;;25.04;43.79
15971;BME280;59785;52.582;13.892;2022-08-21T13:16:03;100752.09;;;24.91;43.69
15971;BME280;59785;52.582;13.892;2022-08-21T13:18:33;100755.66;;;24.74;44.53
15971;BME280;59785;52.582;13.892;2022-08-21T13:21:10;100751.75;;;24.70;44.75
15971;BME280;59785;52.582;13.892;2022-08-21T13:23:37;100752.16;;;24.62;44.33
15971;BME280;59785;52.582;13.892;2022-08-21T13:26:20;100754.66;;;24.35;46.62
15971;BME280;59785;52.582;13.892;2022-08-21T13:28:48;100762.81;;;24.18;47.07
15971;BME280;59785;52.582;13.892;2022-08-21T13:31:20;100756.59;;;24.51;46.25
15971;BME280;59785;52.582;13.892;2022-08-21T13:33:49;100761.19;;;24.63;45.11
15971;BME280;59785;52.582;13.892;2022-08-21T13:36:26;100757.53;;;24.57;45.42
15971;BME280;59785;52.582;13.892;2022-08-21T13:38:55;100761.06;;;24.69;44.34
15971;BME280;59785;52.582;13.892;2022-08-21T13:41:24;100752.09;;;25.08;42.88
15971;BME280;59785;52.582;13.892;2022-08-21T13:44:21;100753.94;;;25.36;43.54
15971;BME280;59785;52.582;13.892;2022-08-21T13:46:46;100757.50;;;25.58;41.95
15971;BME280;59785;52.582;13.892;2022-08-21T13:49:17;100755.25;;;25.72;41.49
15971;BME280;59785;52.582;13.892;2022-08-21T13:51:44;100756.81;;;25.46;42.80